sensor_id;sensor_type;location;lat;lon;timestamp;P1;durP1;ratioP1;P2;durP2;ratioP2
7647;SDS011;3866;48.020;11.720;2022-07-29T00:00:11;2.40;;;1.30;;
7647;SDS011;3866;48.020;11.720;2022-07-29T00:02:38;1.53;;;1.27;;
7647;SDS011;3866;48.020;11.720;2022-07-29T00:05:05;1.33;;;1.10;;
7647;SDS011;3866;48.020;11.720;2022-07-29T00:07:36;1.03;;;0.97;;
7647;SDS011;3866;48.020;11.720;2022-07-29T00:10:03;1.43;;;1.00;;
7647;SDS011;3866;48.020;11.720;2022-07-29T00:12:30;1.10;;;0.80;;
7647;SDS011;3866;48.020;11.720;2022-07-29T00:14:57;1.43;;;0.60;;
7647;SDS011;3866;48.020;11.720;2022-07-29T00:17:24;1.47;;;0.60;;
7647;SDS011;3866;48.020;11.720;2022-07-29T00:19:51;1.67;;;0.60;;
7647;SDS011;3866;48.020;11.720;2022-07-29T00:22:18;1.13;;;0.60;;
7647;SDS011;3866;48.020;11.720;2022-07-29T00:24:48;0.70;;;0.57;;
7647;SDS011;3866;48.020;11.720;2022-07-29T00:27:15;0.80;;;0.80;;
7647;SDS011;3866;48.020;11.720;2022-07-29T00:29:42;0.77;;;0.70;;
7647;SDS011;3866;48.020;11.720;2022-07-29T00:32:08;0.93;;;0.83;;
7647;SDS011;3866;48.020;11.720;2022-07-29T00:34:35;0.60;;;0.60;;
7647;SDS011;3866;48.020;11.720;2022-07-29T00:37:19;1.30;;;0.43;;
7647;SDS011;3866;48.020;11.720;2022-07-29T00:39:48;1.50;;;0.43;;
7647;SDS011;3866;48.020;11.720;2022-07-29T00:42:15;0.50;;;0.50;;
7647;SDS011;3866;48.020;11.720;2022-07-29T00:44:42;1.90;;;0.60;;
7647;SDS011;3866;48.020;11.720;2022-07-29T00:47:10;1.27;;;0.60;;
7647;SDS011;3866;48.020;11.720;2022-07-29T00:49:37;2.00;;;0.67;;
7647;SDS011;3866;48.020;11.720;2022-07-29T00:52:06;0.53;;;0.53;;
7647;SDS011;3866;48.020;11.720;2022-07-29T00:54:35;1.40;;;0.70;;
7647;SDS011;3866;48.020;11.720;2022-07-29T00:57:03;0.63;;;0.60;;
7647;SDS011;3866;48.020;11.720;2022-07-29T00:59:32;0.97;;;0.60;;
7647;SDS011;3866;48.020;11.720;2022-07-29T01:01:59;1.93;;;0.77;;
7647;SDS011;3866;48.020;11.720;2022-07-29T01:04:26;0.70;;;0.50;;
7647;SDS011;3866;48.020;11.720;2022-07-29T01:06:54;0.53;;;0.53;;
7647;SDS011;3866;48.020;11.720;2022-07-29T01:09:22;0.63;;;0.63;;
7647;SDS011;3866;48.020;11.720;2022-07-29T01:11:49;1.10;;;0.50;;
7647;SDS011;3866;48.020;11.720;2022-07-29T01:14:18;0.67;;;0.60;;
7647;SDS011;3866;48.020;11.720;2022-07-29T01:16:48;1.53;;;0.80;;
7647;SDS011;3866;48.020;11.720;2022-07-29T01:19:26;0.67;;;0.67;;
7647;SDS011;3866;48.020;11.720;2022-07-29T01:22:11;0.87;;;0.50;;
7647;SDS011;3866;48.020;11.720;2022-07-29T01:25:05;1.33;;;0.60;;
7647;SDS011;3866;48.020;11.720;2022-07-29T01:28:08;0.60;;;0.60;;
7647;SDS011;3866;48.020;11.720;2022-07-29T01:30:49;0.83;;;0.83;;
7647;SDS011;3866;48.020;11.720;2022-07-29T01:33:18;0.67;;;0.67;;
7647;SDS011;3866;48.020;11.720;2022-07-29T01:36:07;1.63;;;0.80;;
7647;SDS011;3866;48.020;11.720;2022-07-29T01:38:38;0.70;;;0.70;;
7647;SDS011;3866;48.020;11.720;2022-07-29T01:41:08;0.80;;;0.80;;
7647;SDS011;3866;48.020;11.720;2022-07-29T01:43:40;1.43;;;0.70;;
7647;SDS011;3866;48.020;11.720;2022-07-29T01:46:13;1.10;;;0.80;;
7647;SDS011;3866;48.020;11.720;2022-07-29T01:48:46;1.50;;;0.60;;
7647;SDS011;3866;48.020;11.720;2022-07-29T01:51:16;0.60;;;0.60;;
7647;SDS011;3866;48.020;11.720;2022-07-29T01:53:47;0.63;;;0.63;;
7647;SDS011;3866;48.020;11.720;2022-07-29T01:56:21;0.97;;;0.73;;
7647;SDS011;3866;48.020;11.720;2022-07-29T01:58:50;1.03;;;0.90;;
7647;SDS011;3866;48.020;11.720;2022-07-29T02:01:21;1.13;;;0.70;;
7647;SDS011;3866;48.020;11.720;2022-07-29T02:03:51;0.73;;;0.73;;
7647;SDS011;3866;48.020;11.720;2022-07-29T02:06:21;0.80;;;0.50;;
7647;SDS011;3866;48.020;11.720;2022-07-29T02:08:49;1.77;;;0.77;;
7647;SDS011;3866;48.020;11.720;2022-07-29T02:11:18;0.70;;;0.67;;
7647;SDS011;3866;48.020;11.720;2022-07-29T02:13:45;2.37;;;0.87;;
7647;SDS011;3866;48.020;11.720;2022-07-29T02:16:13;0.60;;;0.60;;
7647;SDS011;3866;48.020;11.720;2022-07-29T02:18:44;1.23;;;0.60;;
7647;SDS011;3866;48.020;11.720;2022-07-29T02:21:14;0.80;;;0.80;;
7647;SDS011;3866;48.020;11.720;2022-07-29T02:23:45;0.67;;;0.67;;
7647;SDS011;3866;48.020;11.720;2022-07-29T02:26:13;0.70;;;0.70;;
7647;SDS011;3866;48.020;11.720;2022-07-29T02:28:43;0.60;;;0.60;;
7647;SDS011;3866;48.020;11.720;2022-07-29T02:31:12;0.97;;;0.87;;
7647;SDS011;3866;48.020;11.720;2022-07-29T02:33:39;0.83;;;0.83;;
7647;SDS011;3866;48.020;11.720;2022-07-29T02:36:09;1.00;;;0.90;;
7647;SDS011;3866;48.020;11.720;2022-07-29T02:38:36;1.10;;;1.00;;
7647;SDS011;3866;48.020;11.720;2022-07-29T02:41:20;1.00;;;0.90;;
7647;SDS011;3866;48.020;11.720;2022-07-29T02:43:52;1.30;;;1.03;;
7647;SDS011;3866;48.020;11.720;2022-07-29T02:46:31;0.83;;;0.77;;
7647;SDS011;3866;48.020;11.720;2022-07-29T02:49:02;1.07;;;0.90;;
7647;SDS011;3866;48.020;11.720;2022-07-29T02:51:40;0.80;;;0.80;;
7647;SDS011;3866;48.020;11.720;2022-07-29T02:54:09;0.50;;;0.50;;
7647;SDS011;3866;48.020;11.720;2022-07-29T02:56:40;1.87;;;0.90;;
7647;SDS011;3866;48.020;11.720;2022-07-29T02:59:10;1.50;;;1.00;;
7647;SDS011;3866;48.020;11.720;2022-07-29T03:01:40;4.60;;;0.90;;
7647;SDS011;3866;48.020;11.720;2022-07-29T03:04:09;0.90;;;0.90;;
7647;SDS011;3866;48.020;11.720;2022-07-29T03:06:40;1.43;;;1.10;;
7647;SDS011;3866;48.020;11.720;2022-07-29T03:09:10;1.20;;;1.10;;
7647;SDS011;3866;48.020;11.720;2022-07-29T03:11:37;1.50;;;1.40;;
7647;SDS011;3866;48.020;11.720;2022-07-29T03:14:05;1.77;;;1.37;;
7647;SDS011;3866;48.020;11.720;2022-07-29T03:16:33;1.80;;;1.37;;
7647;SDS011;3866;48.020;11.720;2022-07-29T03:19:02;1.57;;;1.30;;
7647;SDS011;3866;48.020;11.720;2022-07-29T03:21:30;1.40;;;1.30;;
7647;SDS011;3866;48.020;11.720;2022-07-29T03:23:58;1.43;;;1.33;;
7647;SDS011;3866;48.020;11.720;2022-07-29T03:26:25;1.47;;;1.37;;
7647;SDS011;3866;48.020;11.720;2022-07-29T03:28:52;1.80;;;1.27;;
7647;SDS011;3866;48.020;11.720;2022-07-29T03:31:20;3.53;;;1.57;;
7647;SDS011;3866;48.020;11.720;2022-07-29T03:33:47;2.47;;;1.30;;
7647;SDS011;3866;48.020;11.720;2022-07-29T03:36:14;1.43;;;1.33;;
7647;SDS011;3866;48.020;11.720;2022-07-29T03:38:41;2.03;;;1.40;;
7647;SDS011;3866;48.020;11.720;2022-07-29T03:41:11;1.50;;;1.40;;
7647;SDS011;3866;48.020;11.720;2022-07-29T03:43:40;2.03;;;1.33;;
7647;SDS011;3866;48.020;11.720;2022-07-29T03:46:09;1.80;;;1.50;;
7647;SDS011;3866;48.020;11.720;2022-07-29T03:48:39;1.30;;;1.20;;
7647;SDS011;3866;48.020;11.720;2022-07-29T03:51:10;1.70;;;1.60;;
7647;SDS011;3866;48.020;11.720;2022-07-29T03:53:37;1.50;;;1.37;;
7647;SDS011;3866;48.020;11.720;2022-07-29T03:56:04;1.70;;;1.40;;
7647;SDS011;3866;48.020;11.720;2022-07-29T03:58:34;1.20;;;1.20;;
7647;SDS011;3866;48.020;11.720;2022-07-29T04:01:02;1.77;;;1.63;;
7647;SDS011;3866;48.020;11.720;2022-07-29T04:03:29;1.63;;;1.50;;
7647;SDS011;3866;48.020;11.720;2022-07-29T04:05:59;1.70;;;1.60;;
7647;SDS011;3866;48.020;11.720;2022-07-29T04:08:27;5.60;;;2.20;;
7647;SDS011;3866;48.020;11.720;2022-07-29T04:10:54;20.33;;;3.80;;
7647;SDS011;3866;48.020;11.720;2022-07-29T04:13:21;28.30;;;6.40;;
7647;SDS011;3866;48.020;11.720;2022-07-29T04:15:49;19.43;;;3.83;;
7647;SDS011;3866;48.020;11.720;2022-07-29T04:18:17;11.87;;;3.50;;
7647;SDS011;3866;48.020;11.720;2022-07-29T04:20:43;18.20;;;4.43;;
7647;SDS011;3866;48.020;11.720;2022-07-29T04:23:10;29.20;;;5.90;;
7647;SDS011;3866;48.020;11.720;2022-07-29T04:25:38;20.37;;;4.53;;
7647;SDS011;3866;48.020;11.720;2022-07-29T04:28:05;15.30;;;4.20;;
7647;SDS011;3866;48.020;11.720;2022-07-29T04:30:33;27.00;;;5.70;;
7647;SDS011;3866;48.020;11.720;2022-07-29T04:33:03;26.00;;;4.93;;
7647;SDS011;3866;48.020;11.720;2022-07-29T04:35:33;15.87;;;4.37;;
7647;SDS011;3866;48.020;11.720;2022-07-29T04:38:01;21.77;;;5.13;;
7647;SDS011;3866;48.020;11.720;2022-07-29T04:40:28;15.63;;;4.83;;
7647;SDS011;3866;48.020;11.720;2022-07-29T04:42:55;21.57;;;5.07;;
7647;SDS011;3866;48.020;11.720;2022-07-29T04:45:22;15.87;;;3.97;;
7647;SDS011;3866;48.020;11.720;2022-07-29T04:47:48;14.43;;;3.60;;
7647;SDS011;3866;48.020;11.720;2022-07-29T04:50:17;16.50;;;4.20;;
7647;SDS011;3866;48.020;11.720;2022-07-29T04:52:44;9.47;;;3.43;;
7647;SDS011;3866;48.020;11.720;2022-07-29T04:55:11;13.60;;;3.40;;
7647;SDS011;3866;48.020;11.720;2022-07-29T04:57:38;11.50;;;3.50;;
7647;SDS011;3866;48.020;11.720;2022-07-29T05:00:05;6.10;;;3.07;;
7647;SDS011;3866;48.020;11.720;2022-07-29T05:02:34;10.77;;;2.80;;
7647;SDS011;3866;48.020;11.720;2022-07-29T05:05:01;3.93;;;2.40;;
7647;SDS011;3866;48.020;11.720;2022-07-29T05:07:29;2.97;;;2.00;;
7647;SDS011;3866;48.020;11.720;2022-07-29T05:09:56;2.23;;;2.03;;
7647;SDS011;3866;48.020;11.720;2022-07-29T05:12:23;5.57;;;2.30;;
7647;SDS011;3866;48.020;11.720;2022-07-29T05:14:50;2.67;;;2.27;;
7647;SDS011;3866;48.020;11.720;2022-07-29T05:17:17;2.60;;;2.40;;
7647;SDS011;3866;48.020;11.720;2022-07-29T05:19:44;1.80;;;1.70;;
7647;SDS011;3866;48.020;11.720;2022-07-29T05:22:10;2.43;;;2.10;;
7647;SDS011;3866;48.020;11.720;2022-07-29T05:24:39;2.30;;;2.10;;
7647;SDS011;3866;48.020;11.720;2022-07-29T05:27:06;3.43;;;1.80;;
7647;SDS011;3866;48.020;11.720;2022-07-29T05:29:33;2.00;;;1.80;;
7647;SDS011;3866;48.020;11.720;2022-07-29T05:32:00;2.40;;;2.00;;
7647;SDS011;3866;48.020;11.720;2022-07-29T05:34:27;3.33;;;2.40;;
7647;SDS011;3866;48.020;11.720;2022-07-29T05:36:53;2.93;;;2.30;;
7647;SDS011;3866;48.020;11.720;2022-07-29T05:39:21;4.03;;;1.73;;
7647;SDS011;3866;48.020;11.720;2022-07-29T05:41:50;2.60;;;1.90;;
7647;SDS011;3866;48.020;11.720;2022-07-29T05:44:17;4.93;;;2.00;;
7647;SDS011;3866;48.020;11.720;2022-07-29T05:46:44;3.27;;;1.60;;
7647;SDS011;3866;48.020;11.720;2022-07-29T05:49:11;2.60;;;1.60;;
7647;SDS011;3866;48.020;11.720;2022-07-29T05:51:37;3.93;;;1.80;;
7647;SDS011;3866;48.020;11.720;2022-07-29T05:54:05;1.93;;;1.83;;
7647;SDS011;3866;48.020;11.720;2022-07-29T05:56:32;1.40;;;1.30;;
7647;SDS011;3866;48.020;11.720;2022-07-29T05:59:00;3.33;;;1.87;;
7647;SDS011;3866;48.020;11.720;2022-07-29T06:01:27;1.50;;;1.40;;
7647;SDS011;3866;48.020;11.720;2022-07-29T06:03:54;1.50;;;1.40;;
7647;SDS011;3866;48.020;11.720;2022-07-29T06:06:21;1.93;;;1.70;;
7647;SDS011;3866;48.020;11.720;2022-07-29T06:08:48;1.80;;;1.70;;
7647;SDS011;3866;48.020;11.720;2022-07-29T06:11:14;1.37;;;1.27;;
7647;SDS011;3866;48.020;11.720;2022-07-29T06:13:41;6.70;;;2.20;;
7647;SDS011;3866;48.020;11.720;2022-07-29T06:16:09;6.03;;;1.70;;
7647;SDS011;3866;48.020;11.720;2022-07-29T06:18:36;3.00;;;1.60;;
7647;SDS011;3866;48.020;11.720;2022-07-29T06:21:06;2.30;;;1.37;;
7647;SDS011;3866;48.020;11.720;2022-07-29T06:23:34;1.30;;;1.17;;
7647;SDS011;3866;48.020;11.720;2022-07-29T06:26:02;1.33;;;1.23;;
7647;SDS011;3866;48.020;11.720;2022-07-29T06:28:29;1.60;;;1.50;;
7647;SDS011;3866;48.020;11.720;2022-07-29T06:30:56;4.40;;;1.60;;
7647;SDS011;3866;48.020;11.720;2022-07-29T06:33:24;3.37;;;1.57;;
7647;SDS011;3866;48.020;11.720;2022-07-29T06:35:51;3.03;;;1.50;;
7647;SDS011;3866;48.020;11.720;2022-07-29T06:38:17;2.83;;;1.47;;
7647;SDS011;3866;48.020;11.720;2022-07-29T06:40:45;2.20;;;1.63;;
7647;SDS011;3866;48.020;11.720;2022-07-29T06:43:33;1.33;;;1.20;;
7647;SDS011;3866;48.020;11.720;2022-07-29T06:46:03;1.20;;;1.10;;
7647;SDS011;3866;48.020;11.720;2022-07-29T06:48:33;2.47;;;1.37;;
7647;SDS011;3866;48.020;11.720;2022-07-29T06:51:01;1.83;;;1.13;;
7647;SDS011;3866;48.020;11.720;2022-07-29T06:53:29;1.63;;;1.53;;
7647;SDS011;3866;48.020;11.720;2022-07-29T06:55:56;1.53;;;1.43;;
7647;SDS011;3866;48.020;11.720;2022-07-29T06:58:24;1.17;;;1.07;;
7647;SDS011;3866;48.020;11.720;2022-07-29T07:00:51;2.20;;;1.07;;
7647;SDS011;3866;48.020;11.720;2022-07-29T07:03:18;2.17;;;1.00;;
7647;SDS011;3866;48.020;11.720;2022-07-29T07:05:46;1.10;;;1.00;;
7647;SDS011;3866;48.020;11.720;2022-07-29T07:08:13;2.87;;;1.60;;
7647;SDS011;3866;48.020;11.720;2022-07-29T07:10:42;1.60;;;1.03;;
7647;SDS011;3866;48.020;11.720;2022-07-29T07:13:09;1.03;;;0.97;;
7647;SDS011;3866;48.020;11.720;2022-07-29T07:15:36;2.40;;;1.10;;
7647;SDS011;3866;48.020;11.720;2022-07-29T07:18:04;1.10;;;1.03;;
7647;SDS011;3866;48.020;11.720;2022-07-29T07:20:31;1.20;;;1.10;;
7647;SDS011;3866;48.020;11.720;2022-07-29T07:23:00;2.07;;;1.30;;
7647;SDS011;3866;48.020;11.720;2022-07-29T07:25:27;1.30;;;1.17;;
7647;SDS011;3866;48.020;11.720;2022-07-29T07:27:54;1.73;;;1.37;;
7647;SDS011;3866;48.020;11.720;2022-07-29T07:30:21;1.00;;;0.90;;
7647;SDS011;3866;48.020;11.720;2022-07-29T07:32:48;2.07;;;1.00;;
7647;SDS011;3866;48.020;11.720;2022-07-29T07:35:15;0.70;;;0.70;;
7647;SDS011;3866;48.020;11.720;2022-07-29T07:37:41;1.23;;;0.97;;
7647;SDS011;3866;48.020;11.720;2022-07-29T07:40:11;4.13;;;2.37;;
7647;SDS011;3866;48.020;11.720;2022-07-29T07:42:38;2.20;;;1.00;;
7647;SDS011;3866;48.020;11.720;2022-07-29T07:45:05;0.60;;;0.60;;
7647;SDS011;3866;48.020;11.720;2022-07-29T07:47:34;1.00;;;1.00;;
7647;SDS011;3866;48.020;11.720;2022-07-29T07:50:01;0.93;;;0.70;;
7647;SDS011;3866;48.020;11.720;2022-07-29T07:52:29;0.93;;;0.90;;
7647;SDS011;3866;48.020;11.720;2022-07-29T07:54:56;0.90;;;0.73;;
7647;SDS011;3866;48.020;11.720;2022-07-29T07:57:24;1.00;;;0.90;;
7647;SDS011;3866;48.020;11.720;2022-07-29T07:59:51;0.80;;;0.80;;
7647;SDS011;3866;48.020;11.720;2022-07-29T08:02:18;1.10;;;0.80;;
7647;SDS011;3866;48.020;11.720;2022-07-29T08:04:45;2.25;;;0.88;;
7647;SDS011;3866;48.020;11.720;2022-07-29T08:07:12;1.55;;;0.80;;
7647;SDS011;3866;48.020;11.720;2022-07-29T08:09:39;0.80;;;0.77;;
7647;SDS011;3866;48.020;11.720;2022-07-29T08:12:07;1.13;;;0.88;;
7647;SDS011;3866;48.020;11.720;2022-07-29T08:14:35;0.88;;;0.57;;
7647;SDS011;3866;48.020;11.720;2022-07-29T08:17:02;1.02;;;0.70;;
7647;SDS011;3866;48.020;11.720;2022-07-29T08:19:29;0.80;;;0.57;;
7647;SDS011;3866;48.020;11.720;2022-07-29T08:21:56;0.80;;;0.70;;
7647;SDS011;3866;48.020;11.720;2022-07-29T08:24:23;0.60;;;0.60;;
7647;SDS011;3866;48.020;11.720;2022-07-29T08:27:07;1.23;;;0.50;;
7647;SDS011;3866;48.020;11.720;2022-07-29T08:29:36;0.80;;;0.80;;
7647;SDS011;3866;48.020;11.720;2022-07-29T08:32:04;0.90;;;0.90;;
7647;SDS011;3866;48.020;11.720;2022-07-29T08:34:32;0.55;;;0.55;;
7647;SDS011;3866;48.020;11.720;2022-07-29T08:36:59;1.05;;;0.90;;
7647;SDS011;3866;48.020;11.720;2022-07-29T08:39:26;0.95;;;0.82;;
7647;SDS011;3866;48.020;11.720;2022-07-29T08:41:53;1.70;;;0.68;;
7647;SDS011;3866;48.020;11.720;2022-07-29T08:44:20;0.68;;;0.68;;
7647;SDS011;3866;48.020;11.720;2022-07-29T08:46:49;0.90;;;0.90;;
7647;SDS011;3866;48.020;11.720;2022-07-29T08:49:16;2.08;;;1.10;;
7647;SDS011;3866;48.020;11.720;2022-07-29T08:51:43;0.90;;;0.90;;
7647;SDS011;3866;48.020;11.720;2022-07-29T08:54:11;1.50;;;0.80;;
7647;SDS011;3866;48.020;11.720;2022-07-29T08:56:42;1.35;;;0.95;;
7647;SDS011;3866;48.020;11.720;2022-07-29T08:59:09;1.08;;;0.80;;
7647;SDS011;3866;48.020;11.720;2022-07-29T09:01:37;1.10;;;1.10;;
7647;SDS011;3866;48.020;11.720;2022-07-29T09:04:11;2.72;;;1.30;;
7647;SDS011;3866;48.020;11.720;2022-07-29T09:06:42;1.35;;;0.98;;
7647;SDS011;3866;48.020;11.720;2022-07-29T09:09:10;1.23;;;1.13;;
7647;SDS011;3866;48.020;11.720;2022-07-29T09:11:38;1.90;;;1.10;;
7647;SDS011;3866;48.020;11.720;2022-07-29T09:14:06;1.40;;;1.30;;
7647;SDS011;3866;48.020;11.720;2022-07-29T09:16:45;1.97;;;1.30;;
7647;SDS011;3866;48.020;11.720;2022-07-29T09:19:25;1.07;;;1.03;;
7647;SDS011;3866;48.020;11.720;2022-07-29T09:21:53;1.10;;;1.00;;
7647;SDS011;3866;48.020;11.720;2022-07-29T09:24:23;1.40;;;1.40;;
7647;SDS011;3866;48.020;11.720;2022-07-29T09:26:51;1.20;;;1.20;;
7647;SDS011;3866;48.020;11.720;2022-07-29T09:29:19;3.40;;;1.03;;
7647;SDS011;3866;48.020;11.720;2022-07-29T09:31:48;2.17;;;1.37;;
7647;SDS011;3866;48.020;11.720;2022-07-29T09:34:16;1.30;;;1.20;;
7647;SDS011;3866;48.020;11.720;2022-07-29T09:36:49;1.70;;;1.40;;
7647;SDS011;3866;48.020;11.720;2022-07-29T09:39:26;1.57;;;1.20;;
7647;SDS011;3866;48.020;11.720;2022-07-29T09:41:55;1.20;;;0.90;;
7647;SDS011;3866;48.020;11.720;2022-07-29T09:44:23;1.30;;;1.30;;
7647;SDS011;3866;48.020;11.720;2022-07-29T09:46:54;1.40;;;1.30;;
7647;SDS011;3866;48.020;11.720;2022-07-29T09:49:22;1.47;;;1.37;;
7647;SDS011;3866;48.020;11.720;2022-07-29T09:52:00;1.53;;;1.43;;
7647;SDS011;3866;48.020;11.720;2022-07-29T09:54:31;3.30;;;1.57;;
7647;SDS011;3866;48.020;11.720;2022-07-29T09:57:02;1.43;;;1.33;;
7647;SDS011;3866;48.020;11.720;2022-07-29T09:59:30;1.60;;;1.50;;
7647;SDS011;3866;48.020;11.720;2022-07-29T10:01:57;1.53;;;1.43;;
7647;SDS011;3866;48.020;11.720;2022-07-29T10:04:35;2.60;;;1.80;;
7647;SDS011;3866;48.020;11.720;2022-07-29T10:07:05;1.80;;;1.70;;
7647;SDS011;3866;48.020;11.720;2022-07-29T10:09:33;1.40;;;1.30;;
7647;SDS011;3866;48.020;11.720;2022-07-29T10:12:04;1.50;;;1.37;;
7647;SDS011;3866;48.020;11.720;2022-07-29T10:14:33;2.03;;;1.30;;
7647;SDS011;3866;48.020;11.720;2022-07-29T10:17:00;2.33;;;1.80;;
7647;SDS011;3866;48.020;11.720;2022-07-29T10:19:28;4.13;;;2.60;;
7647;SDS011;3866;48.020;11.720;2022-07-29T10:21:57;2.10;;;1.90;;
7647;SDS011;3866;48.020;11.720;2022-07-29T10:24:26;1.80;;;1.70;;
7647;SDS011;3866;48.020;11.720;2022-07-29T10:26:53;2.07;;;1.70;;
7647;SDS011;3866;48.020;11.720;2022-07-29T10:29:22;2.00;;;1.47;;
7647;SDS011;3866;48.020;11.720;2022-07-29T10:31:51;1.80;;;1.70;;
7647;SDS011;3866;48.020;11.720;2022-07-29T10:34:30;3.87;;;1.83;;
7647;SDS011;3866;48.020;11.720;2022-07-29T10:37:12;1.90;;;1.80;;
7647;SDS011;3866;48.020;11.720;2022-07-29T10:39:52;4.20;;;1.97;;
7647;SDS011;3866;48.020;11.720;2022-07-29T10:42:25;3.20;;;2.07;;
7647;SDS011;3866;48.020;11.720;2022-07-29T10:44:55;2.77;;;1.80;;
7647;SDS011;3866;48.020;11.720;2022-07-29T10:47:23;3.60;;;1.87;;
7647;SDS011;3866;48.020;11.720;2022-07-29T10:49:57;4.57;;;2.30;;
7647;SDS011;3866;48.020;11.720;2022-07-29T10:52:37;2.30;;;2.10;;
7647;SDS011;3866;48.020;11.720;2022-07-29T10:58:14;2.57;;;2.37;;
7647;SDS011;3866;48.020;11.720;2022-07-29T11:00:42;2.40;;;2.10;;
7647;SDS011;3866;48.020;11.720;2022-07-29T11:03:10;3.00;;;2.13;;
7647;SDS011;3866;48.020;11.720;2022-07-29T11:06:08;3.03;;;2.70;;
7647;SDS011;3866;48.020;11.720;2022-07-29T11:08:35;2.17;;;1.90;;
7647;SDS011;3866;48.020;11.720;2022-07-29T11:14:05;2.00;;;1.90;;
7647;SDS011;3866;48.020;11.720;2022-07-29T11:19:27;2.77;;;2.27;;
7647;SDS011;3866;48.020;11.720;2022-07-29T11:21:53;3.73;;;2.27;;
7647;SDS011;3866;48.020;11.720;2022-07-29T11:24:21;2.17;;;1.97;;
7647;SDS011;3866;48.020;11.720;2022-07-29T11:27:07;2.77;;;2.00;;
7647;SDS011;3866;48.020;11.720;2022-07-29T11:29:38;2.77;;;2.37;;
7647;SDS011;3866;48.020;11.720;2022-07-29T11:32:13;2.00;;;1.90;;
7647;SDS011;3866;48.020;11.720;2022-07-29T11:34:43;2.00;;;1.80;;
7647;SDS011;3866;48.020;11.720;2022-07-29T11:37:17;2.20;;;2.00;;
7647;SDS011;3866;48.020;11.720;2022-07-29T11:42:46;4.07;;;2.00;;
7647;SDS011;3866;48.020;11.720;2022-07-29T11:45:23;3.37;;;1.80;;
7647;SDS011;3866;48.020;11.720;2022-07-29T11:47:57;2.80;;;1.60;;
7647;SDS011;3866;48.020;11.720;2022-07-29T11:50:33;3.20;;;1.90;;
7647;SDS011;3866;48.020;11.720;2022-07-29T11:53:02;3.00;;;1.73;;
7647;SDS011;3866;48.020;11.720;2022-07-29T11:55:36;1.53;;;1.43;;
7647;SDS011;3866;48.020;11.720;2022-07-29T11:58:05;1.80;;;1.70;;
7647;SDS011;3866;48.020;11.720;2022-07-29T12:00:33;3.33;;;1.50;;
7647;SDS011;3866;48.020;11.720;2022-07-29T12:03:03;2.20;;;1.53;;
7647;SDS011;3866;48.020;11.720;2022-07-29T12:05:36;3.07;;;1.77;;
7647;SDS011;3866;48.020;11.720;2022-07-29T12:08:13;2.53;;;1.60;;
7647;SDS011;3866;48.020;11.720;2022-07-29T12:10:44;3.30;;;1.67;;
7647;SDS011;3866;48.020;11.720;2022-07-29T12:13:13;3.50;;;1.53;;
7647;SDS011;3866;48.020;11.720;2022-07-29T12:15:41;1.83;;;1.73;;
7647;SDS011;3866;48.020;11.720;2022-07-29T12:18:10;4.50;;;1.70;;
7647;SDS011;3866;48.020;11.720;2022-07-29T12:20:38;1.70;;;1.60;;
7647;SDS011;3866;48.020;11.720;2022-07-29T12:23:06;2.87;;;1.70;;
7647;SDS011;3866;48.020;11.720;2022-07-29T12:25:34;2.80;;;1.37;;
7647;SDS011;3866;48.020;11.720;2022-07-29T12:28:02;3.63;;;1.70;;
7647;SDS011;3866;48.020;11.720;2022-07-29T12:30:42;2.70;;;1.30;;
7647;SDS011;3866;48.020;11.720;2022-07-29T12:33:11;2.40;;;1.80;;
7647;SDS011;3866;48.020;11.720;2022-07-29T12:35:46;2.00;;;1.77;;
7647;SDS011;3866;48.020;11.720;2022-07-29T12:38:15;1.80;;;1.63;;
7647;SDS011;3866;48.020;11.720;2022-07-29T12:40:43;2.40;;;1.50;;
7647;SDS011;3866;48.020;11.720;2022-07-29T12:43:12;2.00;;;1.80;;
7647;SDS011;3866;48.020;11.720;2022-07-29T12:45:42;1.93;;;1.70;;
7647;SDS011;3866;48.020;11.720;2022-07-29T12:48:11;1.60;;;1.50;;
7647;SDS011;3866;48.020;11.720;2022-07-29T12:50:52;1.93;;;1.60;;
7647;SDS011;3866;48.020;11.720;2022-07-29T12:53:20;1.60;;;1.50;;
7647;SDS011;3866;48.020;11.720;2022-07-29T12:55:47;1.93;;;1.83;;
7647;SDS011;3866;48.020;11.720;2022-07-29T12:58:26;1.70;;;1.60;;
7647;SDS011;3866;48.020;11.720;2022-07-29T13:03:46;2.33;;;1.47;;
7647;SDS011;3866;48.020;11.720;2022-07-29T13:06:33;2.42;;;1.25;;
7647;SDS011;3866;48.020;11.720;2022-07-29T13:09:03;1.53;;;1.17;;
7647;SDS011;3866;48.020;11.720;2022-07-29T13:11:33;2.17;;;0.80;;
7647;SDS011;3866;48.020;11.720;2022-07-29T13:14:00;1.80;;;0.97;;
7647;SDS011;3866;48.020;11.720;2022-07-29T13:16:29;1.90;;;1.23;;
7647;SDS011;3866;48.020;11.720;2022-07-29T13:19:03;3.63;;;1.17;;
7647;SDS011;3866;48.020;11.720;2022-07-29T13:21:31;1.30;;;1.20;;
7647;SDS011;3866;48.020;11.720;2022-07-29T13:23:58;1.27;;;1.07;;
7647;SDS011;3866;48.020;11.720;2022-07-29T13:26:25;3.43;;;1.23;;
7647;SDS011;3866;48.020;11.720;2022-07-29T13:28:52;1.30;;;1.20;;
7647;SDS011;3866;48.020;11.720;2022-07-29T13:31:19;1.67;;;1.57;;
7647;SDS011;3866;48.020;11.720;2022-07-29T13:33:48;2.20;;;2.00;;
7647;SDS011;3866;48.020;11.720;2022-07-29T13:36:15;2.57;;;1.37;;
7647;SDS011;3866;48.020;11.720;2022-07-29T13:38:42;2.33;;;1.40;;
7647;SDS011;3866;48.020;11.720;2022-07-29T13:41:09;1.40;;;1.30;;
7647;SDS011;3866;48.020;11.720;2022-07-29T13:43:36;1.73;;;1.33;;
7647;SDS011;3866;48.020;11.720;2022-07-29T13:46:03;2.00;;;1.13;;
7647;SDS011;3866;48.020;11.720;2022-07-29T13:48:30;1.40;;;1.40;;
7647;SDS011;3866;48.020;11.720;2022-07-29T13:50:58;2.03;;;1.40;;
7647;SDS011;3866;48.020;11.720;2022-07-29T13:53:25;1.47;;;1.20;;
7647;SDS011;3866;48.020;11.720;2022-07-29T13:55:53;2.00;;;1.80;;
7647;SDS011;3866;48.020;11.720;2022-07-29T13:58:20;3.57;;;1.60;;
7647;SDS011;3866;48.020;11.720;2022-07-29T14:00:47;2.63;;;1.50;;
7647;SDS011;3866;48.020;11.720;2022-07-29T14:03:14;1.80;;;1.20;;
7647;SDS011;3866;48.020;11.720;2022-07-29T14:05:40;2.10;;;1.73;;
7647;SDS011;3866;48.020;11.720;2022-07-29T14:08:09;3.27;;;1.60;;
7647;SDS011;3866;48.020;11.720;2022-07-29T14:10:36;1.67;;;1.57;;
7647;SDS011;3866;48.020;11.720;2022-07-29T14:13:02;1.80;;;1.37;;
7647;SDS011;3866;48.020;11.720;2022-07-29T14:15:29;1.47;;;1.33;;
7647;SDS011;3866;48.020;11.720;2022-07-29T14:17:56;2.80;;;1.60;;
7647;SDS011;3866;48.020;11.720;2022-07-29T14:20:23;2.03;;;1.70;;
7647;SDS011;3866;48.020;11.720;2022-07-29T14:22:50;1.73;;;1.57;;
7647;SDS011;3866;48.020;11.720;2022-07-29T14:25:18;1.83;;;1.50;;
7647;SDS011;3866;48.020;11.720;2022-07-29T14:27:45;1.67;;;1.57;;
7647;SDS011;3866;48.020;11.720;2022-07-29T14:30:12;1.40;;;1.30;;
7647;SDS011;3866;48.020;11.720;2022-07-29T14:32:39;2.20;;;1.53;;
7647;SDS011;3866;48.020;11.720;2022-07-29T14:35:07;1.70;;;1.60;;
7647;SDS011;3866;48.020;11.720;2022-07-29T14:37:34;3.17;;;1.70;;
7647;SDS011;3866;48.020;11.720;2022-07-29T14:40:02;1.63;;;1.53;;
7647;SDS011;3866;48.020;11.720;2022-07-29T14:42:31;1.50;;;1.40;;
7647;SDS011;3866;48.020;11.720;2022-07-29T14:44:57;2.03;;;1.20;;
7647;SDS011;3866;48.020;11.720;2022-07-29T14:47:24;1.93;;;1.60;;
7647;SDS011;3866;48.020;11.720;2022-07-29T14:49:51;1.43;;;1.30;;
7647;SDS011;3866;48.020;11.720;2022-07-29T14:52:18;1.57;;;1.20;;
7647;SDS011;3866;48.020;11.720;2022-07-29T14:54:45;1.60;;;1.50;;
7647;SDS011;3866;48.020;11.720;2022-07-29T14:57:12;1.53;;;1.43;;
7647;SDS011;3866;48.020;11.720;2022-07-29T14:59:40;2.33;;;1.83;;
7647;SDS011;3866;48.020;11.720;2022-07-29T15:02:08;2.13;;;1.80;;
7647;SDS011;3866;48.020;11.720;2022-07-29T15:04:35;2.33;;;1.70;;
7647;SDS011;3866;48.020;11.720;2022-07-29T15:07:02;2.90;;;1.70;;
7647;SDS011;3866;48.020;11.720;2022-07-29T15:09:29;1.70;;;1.60;;
7647;SDS011;3866;48.020;11.720;2022-07-29T15:11:56;1.80;;;1.70;;
7647;SDS011;3866;48.020;11.720;2022-07-29T15:14:23;1.40;;;1.30;;
7647;SDS011;3866;48.020;11.720;2022-07-29T15:16:51;1.60;;;1.47;;
7647;SDS011;3866;48.020;11.720;2022-07-29T15:19:18;3.03;;;1.70;;
7647;SDS011;3866;48.020;11.720;2022-07-29T15:21:45;3.20;;;1.80;;
7647;SDS011;3866;48.020;11.720;2022-07-29T15:24:13;1.67;;;1.53;;
7647;SDS011;3866;48.020;11.720;2022-07-29T15:26:40;1.67;;;1.57;;